createdAt,value
2023-03-17T00:01:56.083Z,93.07
2023-03-17T00:04:26.458Z,94.07
2023-03-17T00:06:55.867Z,94.03
2023-03-17T00:09:24.338Z,94.20
2023-03-17T00:11:53.586Z,94.41
2023-03-17T00:14:22.001Z,95.26
2023-03-17T00:16:52.911Z,94.80
2023-03-17T00:19:28.316Z,94.15
2023-03-17T00:21:56.689Z,96.79
2023-03-17T00:24:25.287Z,95.61
2023-03-17T00:26:53.552Z,94.46
2023-03-17T00:29:21.876Z,93.91
2023-03-17T00:31:51.066Z,93.61
2023-03-17T00:34:21.764Z,96.05
2023-03-17T18:45:42.473Z,55.79
2023-03-17T18:48:11.428Z,55.89
2023-03-17T18:50:40.059Z,56.40
2023-03-17T18:53:08.559Z,56.56
2023-03-17T18:55:36.965Z,56.59
2023-03-17T18:58:05.668Z,56.47
2023-03-17T19:00:34.803Z,57.32
2023-03-17T19:03:04.944Z,57.18
2023-03-17T19:05:37.837Z,57.35
2023-03-17T19:08:07.012Z,58.00
2023-03-17T19:10:35.928Z,58.09
2023-03-17T19:13:07.015Z,57.69
2023-03-17T19:15:36.798Z,57.86
2023-03-17T19:18:06.977Z,58.44
2023-03-17T19:20:36.744Z,58.66
2023-03-17T19:23:07.169Z,59.00
2023-03-17T19:25:37.176Z,59.51
2023-03-17T19:28:06.527Z,60.06
2023-03-17T19:30:35.441Z,59.80
2023-03-17T19:33:04.339Z,59.63
2023-03-17T19:35:34.415Z,59.64
2023-03-17T19:38:04.322Z,59.84
2023-03-17T19:40:33.359Z,59.99
2023-03-17T19:43:02.014Z,60.29
2023-03-17T19:45:30.702Z,60.35
2023-03-17T19:47:59.415Z,60.48
2023-03-17T19:50:28.271Z,60.69
2023-03-17T19:52:59.604Z,61.10
2023-03-17T19:55:29.691Z,61.82
2023-03-17T19:57:58.275Z,61.83
2023-03-17T20:00:27.749Z,62.58
2023-03-17T20:02:56.240Z,62.76
2023-03-17T20:05:25.248Z,62.68
2023-03-17T20:07:54.035Z,62.21
2023-03-17T20:10:24.073Z,61.67
2023-03-17T20:12:52.707Z,62.13
2023-03-17T20:15:21.865Z,61.92
2023-03-17T20:17:50.445Z,62.42
2023-03-17T20:20:19.851Z,62.48
2023-03-17T20:22:48.442Z,62.79
2023-03-17T20:25:17.429Z,62.77
2023-03-17T20:27:47.410Z,63.49
2023-03-17T20:30:16.347Z,63.59
2023-03-17T20:32:45.079Z,63.31
2023-03-17T20:35:14.247Z,64.26
2023-03-17T20:37:42.805Z,64.87
2023-03-17T20:40:13.784Z,65.08
2023-03-17T20:42:43.125Z,65.03
2023-03-17T20:45:13.736Z,64.84
2023-03-17T20:47:42.931Z,64.62
2023-03-17T20:50:13.894Z,64.59
2023-03-17T20:52:43.184Z,64.44
2023-03-17T20:55:15.116Z,64.62
2023-03-17T20:57:45.589Z,64.85
2023-03-17T21:00:20.319Z,64.08
2023-03-17T21:02:50.849Z,63.93
2023-03-17T21:05:22.524Z,63.43
2023-03-17T21:07:51.125Z,63.92
2023-03-17T21:10:20.750Z,64.31
2023-03-17T21:12:49.467Z,64.26
2023-03-17T21:15:20.026Z,64.64
2023-03-17T21:17:48.706Z,64.07
2023-03-17T21:20:17.754Z,64.55
2023-03-17T21:22:46.383Z,63.98
2023-03-17T21:25:15.176Z,64.27
2023-03-17T21:27:44.603Z,64.75
2023-03-17T21:30:14.945Z,64.77
2023-03-17T21:32:45.925Z,64.81
2023-03-17T21:35:14.868Z,64.25
2023-03-17T21:37:43.552Z,64.54
2023-03-17T21:40:15.945Z,65.05
2023-03-17T21:42:44.875Z,64.97
2023-03-17T21:45:14.061Z,64.80
2023-03-17T21:47:42.790Z,65.44
2023-03-17T21:50:17.755Z,66.42
2023-03-17T21:52:46.556Z,65.67
2023-03-17T21:55:15.843Z,65.61
2023-03-17T21:57:44.563Z,65.20
2023-03-17T22:00:14.270Z,64.88
2023-03-17T22:02:43.201Z,64.88
2023-03-17T22:05:11.865Z,65.19
2023-03-17T22:07:42.999Z,65.92
2023-03-17T22:10:12.701Z,66.72
2023-03-17T22:12:41.102Z,66.30
2023-03-17T22:15:10.594Z,66.42
2023-03-17T22:17:40.561Z,67.32
2023-03-17T22:20:12.408Z,67.96
2023-03-17T22:22:43.007Z,66.88
2023-03-17T22:25:12.084Z,66.71
2023-03-17T22:27:41.444Z,67.05
2023-03-17T22:30:11.250Z,66.42
2023-03-17T22:32:41.493Z,66.10
2023-03-17T22:35:11.557Z,65.89
2023-03-17T22:37:42.754Z,66.32
2023-03-17T22:40:14.370Z,66.63
2023-03-17T22:42:42.978Z,67.15
2023-03-17T22:45:13.217Z,67.96
2023-03-17T22:47:54.897Z,67.91
2023-03-17T22:50:23.716Z,68.66
2023-03-17T22:52:53.903Z,68.08
2023-03-17T22:55:22.837Z,68.58
2023-03-17T22:57:51.733Z,69.31
2023-03-17T23:00:20.321Z,68.87
2023-03-17T23:02:48.856Z,69.50
2023-03-17T23:05:20.236Z,69.31
2023-03-17T23:07:52.002Z,69.42
2023-03-17T23:10:25.110Z,69.96
2023-03-17T23:12:54.280Z,70.13
2023-03-17T23:15:23.442Z,69.95
2023-03-17T23:17:52.518Z,70.15
2023-03-17T23:20:21.356Z,74.36
2023-03-17T23:22:50.218Z,71.58
2023-03-17T23:25:19.202Z,70.86
2023-03-17T23:27:49.506Z,70.42
2023-03-17T23:30:19.433Z,70.79
2023-03-17T23:32:49.393Z,70.80
2023-03-17T23:35:19.856Z,71.06
2023-03-17T23:37:48.531Z,70.90
2023-03-17T23:40:19.213Z,70.91
2023-03-17T23:42:49.579Z,70.76
2023-03-17T23:45:19.039Z,70.82
2023-03-17T23:47:48.676Z,70.87
2023-03-17T23:50:17.712Z,70.95
2023-03-17T23:52:47.533Z,71.54
2023-03-17T23:55:17.427Z,73.34
2023-03-17T23:57:46.892Z,72.15
